This is the latest recevied weather packets stored in our database for station/object VK5KX. If no packets are shown the sender has not sent any weather packets the latest 10 day(s).
| Time | Temp. | Humidity | Pressure | Rain* | Wind** | Luminosity | Snow |
|---|---|---|---|---|---|---|---|
| 1777879816 | 17.78° C | 70% | 1016.7 hPa | 0 mm | - | - | - |
| 1777878906 | 17.78° C | 71% | 1016.5 hPa | 0 mm | - | - | - |
| 1777878007 | 17.78° C | 70% | 1016.5 hPa | 0 mm | - | - | - |
| 1777877105 | 18.33° C | 68% | 1016.3 hPa | 0 mm | - | - | - |
| 1777876201 | 18.33° C | 67% | 1016.3 hPa | 0 mm | - | - | - |
| 1777875360 | 18.89° C | 66% | 1016.1 hPa | 0 mm | - | - | - |
| 1777874462 | 18.89° C | 65% | 1016 hPa | 0 mm | - | - | - |
| 1777873556 | 18.89° C | 62% | 1015.8 hPa | 0 mm | - | - | - |
| 1777872654 | 19.44° C | 60% | 1015.6 hPa | 0 mm | - | - | - |
| 1777871751 | 20° C | 61% | 1015.5 hPa | 0 mm | - | - | - |
| 1777870851 | 20° C | 62% | 1015.3 hPa | 0 mm | - | - | - |
| 1777869956 | 19.44° C | 65% | 1015.2 hPa | 0 mm | - | - | - |
| 1777869050 | 19.44° C | 65% | 1015 hPa | 0 mm | - | - | - |
| 1777868146 | 18.89° C | 65% | 1014.9 hPa | 0 mm | - | - | - |
| 1777867261 | 18.89° C | 67% | 1015 hPa | 0 mm | - | - | - |
| 1777866368 | 19.44° C | 67% | 1015 hPa | 0 mm | - | - | - |
| 1777865440 | 18.89° C | 67% | 1015 hPa | 0 mm | - | - | - |
| 1777864539 | 18.89° C | 69% | 1015 hPa | 0 mm | - | - | - |
| 1777863637 | 18.33° C | 71% | 1015.1 hPa | 0 mm | - | - | - |
| 1777862735 | 18.33° C | 72% | 1015.2 hPa | 0 mm | - | - | - |
| 1777861832 | 17.78° C | 76% | 1015.3 hPa | 0.25 mm | - | - | - |
| 1777860928 | 17.22° C | 77% | 1015.4 hPa | 0.25 mm | - | - | - |
| 1777860027 | 17.22° C | 81% | 1015.3 hPa | 0.25 mm | - | - | - |
| 1777859126 | 17.22° C | 83% | 1015.2 hPa | 1.27 mm | - | - | - |
| 1777858230 | 16.67° C | 86% | 1015 hPa | 1.02 mm | - | - | - |
* Rain latest hour (hover to see other rain measurements)
** Current wind speed in m/s (hover to see current wind gust speed)